createdAt,value
2023-04-02T00:00:10.652Z,1.58
2023-04-02T00:03:22.097Z,1.88
2023-04-02T00:06:33.029Z,1.70
2023-04-02T00:09:37.966Z,1.00
2023-04-02T00:12:40.642Z,2.80
2023-04-02T00:15:46.432Z,1.20
2023-04-02T00:18:53.802Z,1.58
2023-04-02T00:21:57.882Z,1.27
2023-04-02T00:25:07.817Z,1.00
2023-04-02T00:28:15.644Z,0.80
2023-04-02T00:31:20.359Z,1.48
2023-04-02T00:34:22.762Z,1.00
2023-04-02T00:37:28.677Z,1.03
2023-04-02T00:40:31.991Z,1.00
2023-04-02T00:43:37.082Z,2.15
2023-04-02T00:46:49.581Z,0.80
2023-04-02T00:49:59.781Z,2.05
2023-04-02T00:53:10.432Z,0.60
2023-04-02T00:56:36.862Z,0.60
2023-04-02T00:59:51.023Z,0.45
2023-04-02T01:03:16.473Z,0.50
2023-04-02T01:06:20.566Z,0.90
2023-04-02T01:09:37.715Z,1.27
2023-04-02T01:13:08.204Z,0.63
2023-04-02T01:16:38.992Z,0.70
2023-04-02T01:19:55.046Z,0.30
2023-04-02T01:23:00.631Z,0.68
2023-04-02T01:26:21.589Z,0.40
2023-04-02T01:29:32.458Z,0.98
2023-04-02T01:32:36.203Z,0.93
2023-04-02T01:35:46.779Z,0.77
2023-04-02T01:39:02.252Z,0.55
2023-04-02T01:42:36.304Z,1.00
2023-04-02T01:45:38.795Z,1.27
2023-04-02T01:48:42.558Z,0.85
2023-04-02T01:51:50.852Z,1.15
2023-04-02T01:54:54.509Z,0.60
2023-04-02T01:57:59.318Z,0.60
2023-04-02T02:01:09.831Z,0.60
2023-04-02T02:04:15.446Z,0.65
2023-04-02T02:07:20.841Z,1.15
2023-04-02T02:10:39.154Z,0.82
2023-04-02T02:13:53.191Z,0.40
2023-04-02T02:17:00.135Z,0.55
2023-04-02T02:20:10.877Z,0.60
2023-04-02T02:23:14.429Z,0.60
2023-04-02T02:26:18.941Z,0.60
2023-04-02T02:29:26.378Z,0.57
2023-04-02T02:32:32.688Z,0.57
2023-04-02T02:36:18.457Z,0.47
2023-04-02T02:39:34.848Z,1.23
2023-04-02T02:42:48.947Z,0.50
2023-04-02T02:45:54.102Z,1.10
2023-04-02T02:48:58.683Z,1.30
2023-04-02T02:52:13.503Z,0.47
2023-04-02T02:55:32.625Z,0.60
2023-04-02T02:58:42.753Z,0.52
2023-04-02T03:02:00.750Z,1.20
2023-04-02T03:05:04.956Z,0.82
2023-04-02T03:08:13.694Z,1.65
2023-04-02T03:11:29.184Z,0.80
2023-04-02T03:14:38.045Z,1.05
2023-04-02T03:18:13.397Z,1.90
2023-04-02T03:21:31.942Z,1.08
2023-04-02T03:24:46.688Z,0.80
2023-04-02T03:27:54.286Z,0.60
2023-04-02T03:31:06.076Z,1.17
2023-04-02T03:34:18.589Z,0.70
2023-04-02T03:37:26.261Z,0.63
2023-04-02T03:40:34.797Z,0.63
2023-04-02T03:43:43.528Z,0.60
2023-04-02T03:46:57.392Z,0.80
2023-04-02T03:50:26.797Z,0.80
2023-04-02T03:53:32.667Z,1.95
2023-04-02T03:56:40.412Z,0.82
2023-04-02T03:59:59.294Z,2.10
2023-04-02T04:03:12.432Z,1.08
2023-04-02T04:06:28.185Z,1.20
2023-04-02T04:09:39.374Z,1.15
2023-04-02T04:12:46.298Z,0.85
2023-04-02T04:16:00.470Z,0.80
2023-04-02T04:19:55.047Z,1.27
2023-04-02T04:23:11.134Z,0.93
2023-04-02T04:26:26.211Z,1.42
2023-04-02T04:29:45.522Z,1.73
2023-04-02T04:32:58.614Z,1.10
2023-04-02T04:36:03.825Z,0.70
2023-04-02T04:39:23.496Z,1.77
2023-04-02T04:42:31.878Z,1.00
2023-04-02T04:45:44.995Z,1.17
2023-04-02T04:49:21.571Z,1.52
2023-04-02T04:52:36.643Z,1.63
2023-04-02T04:55:44.435Z,1.30
2023-04-02T04:58:50.902Z,1.55
2023-04-02T05:02:02.212Z,1.05
2023-04-02T05:05:16.893Z,1.42
2023-04-02T05:08:30.551Z,1.98
2023-04-02T05:11:42.941Z,1.03
2023-04-02T05:14:58.390Z,0.98
2023-04-02T05:18:37.782Z,0.80
2023-04-02T05:21:44.034Z,1.02
2023-04-02T05:24:50.659Z,1.33
2023-04-02T05:27:59.229Z,1.20
2023-04-02T05:31:08.491Z,1.20
2023-04-02T05:34:13.277Z,1.35
2023-04-02T05:37:29.485Z,0.88
2023-04-02T05:40:42.365Z,0.77
2023-04-02T05:43:48.318Z,1.00
2023-04-02T05:47:06.739Z,2.22
2023-04-02T05:50:12.482Z,1.42
2023-04-02T05:53:49.932Z,1.30
2023-04-02T05:56:57.995Z,1.60
2023-04-02T06:00:07.222Z,1.77
2023-04-02T06:03:41.832Z,2.15
2023-04-02T06:06:50.648Z,1.85
2023-04-02T06:10:10.249Z,1.30
2023-04-02T06:13:19.747Z,0.98
2023-04-02T06:16:27.075Z,0.80
2023-04-02T06:19:35.802Z,0.95
2023-04-02T06:22:41.883Z,1.30
2023-04-02T06:26:06.347Z,1.52
2023-04-02T06:29:31.625Z,2.30
2023-04-02T06:32:34.878Z,2.27
2023-04-02T06:35:41.391Z,1.45
2023-04-02T06:38:44.596Z,1.38
2023-04-02T06:41:58.772Z,1.75
2023-04-02T06:45:25.667Z,1.95
2023-04-02T06:49:14.124Z,1.40
2023-04-02T06:52:26.141Z,1.25
2023-04-02T06:55:32.046Z,1.33
2023-04-02T06:58:35.162Z,1.73
2023-04-02T07:01:45.288Z,2.53
2023-04-02T07:04:48.821Z,1.00
2023-04-02T07:07:53.314Z,1.67
2023-04-02T07:10:56.893Z,1.80
2023-04-02T07:14:00.706Z,1.35
2023-04-02T07:17:03.669Z,1.40
2023-04-02T07:20:06.929Z,1.20
2023-04-02T07:23:10.413Z,1.52
2023-04-02T07:26:16.179Z,1.77
2023-04-02T07:29:19.954Z,1.23
2023-04-02T07:32:22.381Z,1.35
2023-04-02T07:35:24.903Z,1.70
2023-04-02T07:38:27.594Z,1.77
2023-04-02T07:41:30.178Z,2.17
2023-04-02T07:44:32.657Z,2.47
2023-04-02T07:47:35.439Z,1.35
2023-04-02T07:50:38.508Z,1.37
2023-04-02T07:53:41.878Z,1.73
2023-04-02T07:56:44.429Z,2.17
2023-04-02T07:59:47.472Z,2.22
2023-04-02T08:02:51.237Z,2.15
2023-04-02T08:05:56.315Z,2.23
2023-04-02T08:08:59.429Z,2.40
2023-04-02T08:12:02.197Z,2.03
2023-04-02T08:15:08.940Z,2.47
2023-04-02T08:18:12.215Z,1.90
2023-04-02T08:21:16.554Z,1.63
2023-04-02T08:24:19.962Z,2.08
2023-04-02T08:27:24.022Z,2.25
2023-04-02T08:30:27.145Z,4.30
2023-04-02T08:33:29.658Z,2.22
2023-04-02T08:36:38.398Z,2.17
2023-04-02T08:39:41.361Z,2.20
2023-04-02T08:43:16.145Z,2.85
2023-04-02T08:46:40.913Z,1.40
2023-04-02T08:49:52.478Z,1.77
2023-04-02T08:52:55.190Z,1.53
2023-04-02T08:56:17.993Z,1.80
2023-04-02T08:59:36.070Z,1.33
2023-04-02T09:02:43.509Z,1.58
2023-04-02T09:05:47.842Z,1.95
2023-04-02T09:08:51.970Z,1.50
2023-04-02T09:12:04.437Z,2.22
2023-04-02T09:15:26.048Z,3.83
2023-04-02T09:18:32.134Z,1.38
2023-04-02T09:21:40.863Z,1.83
2023-04-02T09:24:43.461Z,1.40
2023-04-02T09:27:49.967Z,4.30
2023-04-02T09:31:01.652Z,2.05
2023-04-02T09:34:31.320Z,2.05
2023-04-02T09:37:34.163Z,1.60
2023-04-02T09:40:51.484Z,1.53
2023-04-02T09:44:22.241Z,1.52
2023-04-02T09:47:27.336Z,1.50
2023-04-02T09:50:33.838Z,1.75
2023-04-02T09:53:41.836Z,1.88
2023-04-02T09:57:03.465Z,1.83
2023-04-02T10:00:21.860Z,1.30
2023-04-02T10:03:33.247Z,1.48
2023-04-02T10:06:35.725Z,2.15
2023-04-02T10:09:38.937Z,1.25
2023-04-02T10:12:43.596Z,2.00
2023-04-02T10:15:57.312Z,1.88
2023-04-02T10:19:17.843Z,2.40
2023-04-02T10:22:22.905Z,2.33
2023-04-02T10:25:30.314Z,1.38
2023-04-02T10:28:44.821Z,1.40
2023-04-02T10:31:53.399Z,1.30
2023-04-02T10:35:19.537Z,2.03
2023-04-02T10:38:28.644Z,1.58
2023-04-02T10:42:01.916Z,2.90
2023-04-02T10:45:38.654Z,2.13
2023-04-02T10:48:52.568Z,2.67
2023-04-02T10:52:00.698Z,1.65
2023-04-02T10:55:15.077Z,1.90
2023-04-02T10:58:24.298Z,2.28
2023-04-02T11:01:29.807Z,1.73
2023-04-02T11:04:42.511Z,2.28
2023-04-02T11:08:14.022Z,2.15
2023-04-02T11:11:21.497Z,1.80
2023-04-02T11:14:27.694Z,1.95
2023-04-02T11:17:30.401Z,1.80
2023-04-02T11:20:48.787Z,1.73
2023-04-02T11:24:00.936Z,1.77
2023-04-02T11:27:12.494Z,2.22
2023-04-02T11:30:27.698Z,1.60
2023-04-02T11:33:46.065Z,1.30
2023-04-02T11:36:52.957Z,1.83
2023-04-02T11:39:58.273Z,1.33
2023-04-02T11:43:32.495Z,1.65
2023-04-02T11:46:42.866Z,1.77
2023-04-02T11:50:06.233Z,1.83
2023-04-02T11:53:11.746Z,1.45
2023-04-02T11:56:34.142Z,1.38
2023-04-02T11:59:49.914Z,1.50
2023-04-02T12:03:13.447Z,1.67
2023-04-02T12:06:34.536Z,1.70
2023-04-02T12:09:56.892Z,1.55
2023-04-02T12:12:59.822Z,1.52
2023-04-02T12:16:03.368Z,1.42
2023-04-02T12:19:09.356Z,2.00
2023-04-02T12:22:28.595Z,1.57
2023-04-02T12:25:33.900Z,1.40
2023-04-02T12:28:38.271Z,1.40
2023-04-02T12:31:47.991Z,1.40
2023-04-02T12:34:53.208Z,1.50
2023-04-02T12:37:55.675Z,1.60
2023-04-02T12:41:06.674Z,1.50
2023-04-02T12:44:18.473Z,1.83
2023-04-02T12:47:21.163Z,1.67
2023-04-02T12:50:23.892Z,1.80
2023-04-02T12:53:34.879Z,2.23
2023-04-02T12:56:37.425Z,1.70
2023-04-02T12:59:40.949Z,1.20
2023-04-02T13:02:45.605Z,1.20
2023-04-02T13:05:52.641Z,1.50
2023-04-02T13:08:55.601Z,1.80
2023-04-02T13:11:58.814Z,1.20
2023-04-02T13:15:04.171Z,1.10
2023-04-02T13:18:12.611Z,0.70
2023-04-02T13:21:15.439Z,0.98
2023-04-02T13:24:23.824Z,1.27
2023-04-02T13:27:26.224Z,0.90
2023-04-02T13:30:29.484Z,1.73
2023-04-02T13:33:32.413Z,1.30
2023-04-02T13:36:35.040Z,1.15
2023-04-02T13:39:37.407Z,0.60
2023-04-02T13:42:42.110Z,1.20
2023-04-02T13:45:50.604Z,1.00
2023-04-02T13:48:54.840Z,1.05
2023-04-02T13:52:05.426Z,0.80
2023-04-02T13:55:10.313Z,0.90
2023-04-02T13:58:13.220Z,0.80
2023-04-02T14:01:16.095Z,0.80
2023-04-02T14:04:24.556Z,0.50
2023-04-02T14:07:59.458Z,1.00
2023-04-02T14:11:27.107Z,1.37
2023-04-02T14:14:32.772Z,1.10
2023-04-02T14:17:47.628Z,1.13
2023-04-02T14:21:17.405Z,1.10
2023-04-02T14:24:58.551Z,4.45
2023-04-02T14:28:11.912Z,3.47
2023-04-02T14:31:43.492Z,1.77
2023-04-02T14:34:54.775Z,1.20
2023-04-02T14:38:40.597Z,1.10
2023-04-02T14:41:52.504Z,1.10
2023-04-02T14:45:03.972Z,0.63
2023-04-02T14:48:38.575Z,4.20
2023-04-02T14:52:04.528Z,0.85
2023-04-02T14:55:26.385Z,0.80
2023-04-02T14:58:34.541Z,3.97
2023-04-02T15:01:43.347Z,1.47
2023-04-02T15:05:01.433Z,2.15
2023-04-02T15:08:39.431Z,2.63
2023-04-02T15:11:48.876Z,3.80
2023-04-02T15:14:59.198Z,3.80
2023-04-02T15:18:02.537Z,2.77
2023-04-02T15:21:20.240Z,2.88
2023-04-02T15:24:37.263Z,1.45
2023-04-02T15:27:39.711Z,1.48
2023-04-02T15:30:44.276Z,1.40
2023-04-02T15:34:01.765Z,1.63
2023-04-02T15:37:12.742Z,1.65
2023-04-02T15:40:35.300Z,2.28
2023-04-02T15:43:39.095Z,1.95
2023-04-02T15:46:55.505Z,2.97
2023-04-02T15:50:14.086Z,3.70
2023-04-02T15:53:34.925Z,2.42
2023-04-02T15:57:09.422Z,2.67
2023-04-02T16:00:33.029Z,3.65
2023-04-02T16:03:49.557Z,3.17
2023-04-02T16:07:17.051Z,3.70
2023-04-02T16:10:40.218Z,3.53
2023-04-02T16:13:45.088Z,3.22
2023-04-02T16:16:50.481Z,3.30
2023-04-02T16:20:02.452Z,5.22
2023-04-02T16:23:20.613Z,4.40
2023-04-02T16:26:47.153Z,7.78
2023-04-02T16:30:20.234Z,6.15
2023-04-02T16:33:46.078Z,5.35
2023-04-02T16:37:19.393Z,4.93
2023-04-02T16:41:04.789Z,5.73
2023-04-02T16:44:28.768Z,5.60
2023-04-02T16:47:45.349Z,4.47
2023-04-02T16:51:09.150Z,4.60
2023-04-02T16:54:20.268Z,5.10
2023-04-02T16:57:56.605Z,3.50
2023-04-02T17:01:16.308Z,4.05
2023-04-02T17:04:46.562Z,3.80
2023-04-02T17:08:02.997Z,3.17
2023-04-02T17:11:12.612Z,4.60
2023-04-02T17:14:35.020Z,1.50
2023-04-02T17:17:37.877Z,0.98
2023-04-02T17:20:41.446Z,2.15
2023-04-02T17:24:06.674Z,1.40
2023-04-02T17:27:25.623Z,1.65
2023-04-02T17:30:31.207Z,1.40
2023-04-02T17:33:34.140Z,1.75
2023-04-02T17:36:48.435Z,1.63
2023-04-02T17:40:18.635Z,2.10
2023-04-02T17:43:40.363Z,4.43
2023-04-02T17:46:57.180Z,3.50
2023-04-02T17:50:48.627Z,1.75
2023-04-02T17:54:10.492Z,1.95
2023-04-02T17:57:52.255Z,1.52
2023-04-02T18:01:06.944Z,2.38
2023-04-02T18:04:27.990Z,2.43
2023-04-02T18:08:00.456Z,4.07
2023-04-02T18:11:02.934Z,6.07
2023-04-02T18:14:18.076Z,4.43
2023-04-02T18:17:33.214Z,3.42
2023-04-02T18:21:14.790Z,4.70
2023-04-02T18:24:46.499Z,5.30
2023-04-02T18:28:14.952Z,3.50
2023-04-02T18:31:49.390Z,2.25
2023-04-02T18:35:22.568Z,3.00
2023-04-02T18:38:40.546Z,4.33
2023-04-02T18:41:52.684Z,2.53
2023-04-02T18:45:19.051Z,2.20
2023-04-02T18:48:36.922Z,2.95
2023-04-02T18:51:40.367Z,4.65
2023-04-02T18:54:55.511Z,3.33
2023-04-02T18:58:04.064Z,3.10
2023-04-02T19:01:11.575Z,2.55
2023-04-02T19:04:28.644Z,3.28
2023-04-02T19:07:36.786Z,2.95
2023-04-02T19:10:43.965Z,2.60
2023-04-02T19:13:49.004Z,3.88
2023-04-02T19:17:09.733Z,2.70
2023-04-02T19:20:26.944Z,2.47
2023-04-02T19:23:38.501Z,2.33
2023-04-02T19:27:27.211Z,2.13
2023-04-02T19:31:01.225Z,2.05
2023-04-02T19:34:34.207Z,3.80
2023-04-02T19:37:41.973Z,4.25
2023-04-02T19:41:07.008Z,4.43
2023-04-02T19:44:13.466Z,3.37
2023-04-02T19:47:18.630Z,2.75
2023-04-02T19:50:21.593Z,1.65
2023-04-02T19:53:24.426Z,3.00
2023-04-02T19:56:28.183Z,2.10
2023-04-02T19:59:31.077Z,2.23
2023-04-02T20:02:34.012Z,1.92
2023-04-02T20:05:37.095Z,1.90
2023-04-02T20:08:40.192Z,1.52
2023-04-02T20:11:43.014Z,2.00
2023-04-02T20:14:45.727Z,1.87
2023-04-02T20:17:48.400Z,2.22
2023-04-02T20:20:51.023Z,2.45
2023-04-02T20:23:54.455Z,2.10
2023-04-02T20:26:56.917Z,1.25
2023-04-02T20:29:59.720Z,2.43
2023-04-02T20:33:02.436Z,2.20
2023-04-02T20:36:08.545Z,2.95
2023-04-02T20:39:17.528Z,1.65
2023-04-02T20:42:20.069Z,1.85
2023-04-02T20:45:22.727Z,1.63
2023-04-02T20:48:30.907Z,1.67
2023-04-02T20:51:34.440Z,1.63
2023-04-02T20:54:37.042Z,2.58
2023-04-02T20:57:39.672Z,1.05
2023-04-02T21:00:42.388Z,1.27
2023-04-02T21:03:45.407Z,1.02
2023-04-02T21:06:48.675Z,0.40
2023-04-02T21:09:54.227Z,0.30
2023-04-02T21:12:56.679Z,0.30
2023-04-02T21:15:59.973Z,0.57
2023-04-02T21:19:05.960Z,0.40
2023-04-02T21:22:08.600Z,0.98
2023-04-02T21:25:11.133Z,2.00
2023-04-02T21:28:13.594Z,1.70
2023-04-02T21:31:19.363Z,1.57
2023-04-02T21:34:21.741Z,1.17
2023-04-02T21:37:24.218Z,1.75
2023-04-02T21:40:27.059Z,1.83
2023-04-02T21:43:29.432Z,2.10
2023-04-02T21:46:36.083Z,1.90
2023-04-02T21:49:38.879Z,2.42
2023-04-02T21:52:41.490Z,2.97
2023-04-02T21:55:44.055Z,2.10
2023-04-02T21:58:47.645Z,3.38
2023-04-02T22:01:52.070Z,3.00
2023-04-02T22:04:54.589Z,2.42
2023-04-02T22:07:57.059Z,3.40
2023-04-02T22:11:05.441Z,3.13
2023-04-02T22:14:08.574Z,2.25
2023-04-02T22:17:11.046Z,2.97
2023-04-02T22:20:13.752Z,2.65
2023-04-02T22:23:17.785Z,2.08
2023-04-02T22:26:23.169Z,3.45
2023-04-02T22:29:25.853Z,2.45
2023-04-02T22:32:28.377Z,3.13
2023-04-02T22:35:31.059Z,2.67
2023-04-02T22:38:34.852Z,2.58
2023-04-02T22:41:37.484Z,3.15
2023-04-02T22:44:40.270Z,2.30
2023-04-02T22:47:42.819Z,2.97
2023-04-02T22:50:50.479Z,3.08
2023-04-02T22:53:54.841Z,2.85
2023-04-02T22:56:57.336Z,2.92
2023-04-02T23:00:00.164Z,2.70
2023-04-02T23:03:03.169Z,3.60
2023-04-02T23:06:08.855Z,3.75
2023-04-02T23:09:11.434Z,3.63
2023-04-02T23:12:13.976Z,5.05
2023-04-02T23:15:17.133Z,3.72
2023-04-02T23:18:19.612Z,5.10
2023-04-02T23:21:22.782Z,3.83
2023-04-02T23:24:25.265Z,3.58
2023-04-02T23:27:27.811Z,5.15
2023-04-02T23:30:30.494Z,3.97
2023-04-02T23:33:33.556Z,3.33
2023-04-02T23:36:36.325Z,3.88
2023-04-02T23:39:39.093Z,3.70
2023-04-02T23:42:41.777Z,4.32
2023-04-02T23:45:50.671Z,4.20
2023-04-02T23:48:54.549Z,3.73
2023-04-02T23:51:58.310Z,3.97
2023-04-02T23:55:00.742Z,3.92
2023-04-02T23:58:04.076Z,4.50
